createdAt,value
2022-11-15T00:02:05.051Z,74.50
2022-11-15T00:04:51.499Z,74.60
2022-11-15T00:07:55.228Z,74.60
2022-11-15T00:10:42.780Z,74.50
2022-11-15T00:13:29.806Z,74.50
2022-11-15T00:16:16.828Z,74.50
2022-11-15T00:19:03.916Z,74.50
2022-11-15T00:21:50.425Z,74.50
2022-11-15T00:24:38.307Z,74.40
2022-11-15T00:27:24.789Z,74.40
2022-11-15T00:30:12.297Z,74.50
2022-11-15T00:32:58.779Z,74.40
2022-11-15T00:35:45.345Z,74.40
2022-11-15T00:38:34.369Z,74.60
2022-11-15T00:41:22.219Z,74.50
2022-11-15T00:44:08.679Z,74.50
2022-11-15T00:46:55.414Z,74.50
2022-11-15T00:49:41.975Z,74.60
2022-11-15T00:52:28.550Z,74.50
2022-11-15T00:55:17.183Z,74.50
2022-11-15T00:58:04.961Z,74.40
2022-11-15T01:00:51.293Z,74.50
2022-11-15T01:03:38.709Z,74.50
2022-11-15T01:06:25.235Z,74.50
2022-11-15T01:09:11.671Z,74.60
2022-11-15T01:11:58.103Z,74.60
2022-11-15T01:14:45.777Z,74.60
2022-11-15T01:17:32.327Z,74.60
2022-11-15T01:20:19.768Z,74.60
2022-11-15T01:23:06.256Z,74.60
2022-11-15T01:25:52.737Z,74.60
2022-11-15T01:28:41.882Z,74.60
2022-11-15T01:31:29.812Z,74.60
2022-11-15T01:34:16.543Z,74.60
2022-11-15T01:37:03.029Z,74.60
2022-11-15T01:39:49.303Z,74.60
2022-11-15T01:42:35.709Z,74.60
2022-11-15T01:45:22.398Z,74.60
2022-11-15T01:48:12.573Z,74.60
2022-11-15T01:50:59.139Z,74.70
2022-11-15T01:53:49.629Z,74.60
2022-11-15T01:56:45.302Z,74.70
2022-11-15T01:59:32.196Z,74.70
2022-11-15T02:02:18.671Z,74.70
2022-11-15T02:05:07.245Z,74.60
2022-11-15T02:07:53.898Z,74.70
2022-11-15T02:10:40.114Z,74.60
2022-11-15T02:13:26.602Z,74.70
2022-11-15T02:16:20.264Z,74.70
2022-11-15T02:19:30.049Z,74.70
2022-11-15T02:22:34.601Z,74.70
2022-11-15T02:25:39.736Z,74.70
2022-11-15T02:28:42.088Z,74.60
2022-11-15T02:31:36.015Z,74.70
2022-11-15T02:34:30.405Z,74.70
2022-11-15T02:37:23.554Z,74.70
2022-11-15T02:40:19.168Z,74.70
2022-11-15T02:43:27.544Z,74.70
2022-11-15T02:46:20.439Z,74.80
2022-11-15T02:49:08.201Z,74.60
2022-11-15T02:51:56.647Z,74.70
2022-11-15T02:54:42.771Z,74.80
2022-11-15T02:57:38.654Z,74.80
2022-11-15T03:00:24.975Z,74.80
2022-11-15T03:03:38.917Z,74.70
2022-11-15T03:06:35.024Z,74.80
2022-11-15T03:09:31.538Z,74.80
2022-11-15T03:12:24.596Z,74.70
2022-11-15T03:15:15.132Z,74.80
2022-11-15T03:18:06.795Z,74.70
2022-11-15T03:20:54.589Z,74.80
2022-11-15T03:23:43.084Z,74.70
2022-11-15T03:26:31.598Z,74.70
2022-11-15T03:29:22.908Z,74.70
2022-11-15T03:32:14.368Z,74.70
2022-11-15T03:35:04.502Z,74.80
2022-11-15T03:37:56.601Z,74.70
2022-11-15T03:40:49.519Z,74.70
2022-11-15T03:43:41.726Z,74.80
2022-11-15T03:46:31.184Z,74.80
2022-11-15T03:49:26.442Z,74.70
2022-11-15T03:52:13.483Z,74.70
2022-11-15T03:55:03.032Z,74.80
2022-11-15T03:57:54.707Z,74.70
2022-11-15T04:00:41.221Z,74.70
2022-11-15T04:03:28.310Z,74.70
2022-11-15T04:06:14.999Z,74.70
2022-11-15T04:09:01.600Z,74.80
2022-11-15T04:11:47.821Z,74.80
2022-11-15T04:14:35.687Z,74.80
2022-11-15T04:17:22.029Z,74.80
2022-11-15T04:20:28.423Z,74.70
2022-11-15T04:23:34.836Z,74.80
2022-11-15T04:26:23.729Z,74.80
2022-11-15T04:29:27.781Z,74.80
2022-11-15T04:32:15.655Z,74.80
2022-11-15T04:35:02.050Z,74.80
2022-11-15T04:37:49.581Z,74.80
2022-11-15T04:40:36.703Z,74.80
2022-11-15T04:43:22.898Z,74.80
2022-11-15T04:46:09.067Z,74.80
2022-11-15T04:48:59.231Z,74.80
2022-11-15T04:51:45.948Z,74.80
2022-11-15T04:54:32.248Z,74.70
2022-11-15T04:57:18.647Z,74.70
2022-11-15T05:00:06.548Z,74.70
2022-11-15T05:03:10.552Z,74.70
2022-11-15T05:05:59.626Z,74.70
2022-11-15T05:08:46.136Z,74.80
2022-11-15T05:11:32.692Z,74.80
2022-11-15T05:14:19.111Z,74.70
2022-11-15T05:17:05.367Z,74.70
2022-11-15T05:19:53.266Z,74.60
2022-11-15T05:22:40.963Z,74.70
2022-11-15T05:25:27.304Z,74.70
2022-11-15T05:28:14.343Z,74.60
2022-11-15T05:31:03.156Z,74.50
2022-11-15T05:33:50.504Z,74.50
2022-11-15T05:36:39.430Z,74.50
2022-11-15T05:39:27.633Z,74.40
2022-11-15T05:42:16.483Z,74.50
2022-11-15T05:45:04.469Z,74.60
2022-11-15T05:47:52.149Z,75.30
2022-11-15T05:50:40.479Z,75.70
2022-11-15T05:53:27.702Z,75.90
2022-11-15T05:56:16.500Z,76.10
2022-11-15T05:59:03.332Z,76.20
2022-11-15T06:01:49.702Z,76.20
2022-11-15T06:04:35.867Z,76.20
2022-11-15T06:07:22.547Z,76.20
2022-11-15T06:10:10.523Z,76.20
2022-11-15T06:13:02.653Z,76.10
2022-11-15T06:15:49.088Z,76.20
2022-11-15T06:18:36.149Z,76.10
2022-11-15T06:21:22.806Z,76.10
2022-11-15T06:24:09.286Z,76.20
2022-11-15T06:26:55.968Z,76.20
2022-11-15T06:29:43.744Z,76.30
2022-11-15T06:32:31.711Z,77.20
2022-11-15T06:35:18.333Z,76.40
2022-11-15T06:38:06.697Z,76.40
2022-11-15T06:40:53.221Z,76.40
2022-11-15T06:43:40.334Z,76.40
2022-11-15T06:46:28.176Z,76.30
2022-11-15T06:49:14.589Z,76.30
2022-11-15T06:52:00.979Z,76.40
2022-11-15T06:54:47.415Z,76.30
2022-11-15T06:57:34.071Z,76.30
2022-11-15T07:00:23.198Z,76.20
2022-11-15T07:03:11.589Z,76.30
2022-11-15T07:06:04.227Z,76.20
2022-11-15T07:08:53.377Z,76.30
2022-11-15T07:11:39.819Z,76.30
2022-11-15T07:14:26.317Z,77.10
2022-11-15T07:17:12.831Z,76.30
2022-11-15T07:20:00.440Z,76.30
2022-11-15T07:22:47.011Z,76.20
2022-11-15T07:25:33.324Z,76.10
2022-11-15T07:28:19.721Z,76.20
2022-11-15T07:31:08.366Z,76.10
2022-11-15T07:33:54.692Z,76.10
2022-11-15T07:36:42.844Z,76.10
2022-11-15T07:39:29.442Z,76.00
2022-11-15T07:42:33.501Z,76.00
2022-11-15T07:45:20.197Z,76.00
2022-11-15T07:48:07.652Z,75.90
2022-11-15T07:50:54.155Z,75.70
2022-11-15T07:53:42.093Z,75.90
2022-11-15T07:56:28.664Z,75.90
2022-11-15T07:59:15.077Z,75.70
2022-11-15T08:02:01.675Z,75.80
2022-11-15T08:04:48.136Z,75.90
2022-11-15T08:07:34.854Z,75.80
2022-11-15T08:10:22.540Z,75.80
2022-11-15T08:13:12.495Z,75.80
2022-11-15T08:16:00.540Z,75.80
2022-11-15T08:18:47.110Z,75.70
2022-11-15T08:21:33.454Z,76.40
2022-11-15T08:24:19.807Z,75.60
2022-11-15T08:27:15.440Z,75.60
2022-11-15T08:30:02.446Z,75.60
2022-11-15T08:32:49.092Z,75.50
2022-11-15T08:35:35.474Z,75.50
2022-11-15T08:38:21.977Z,75.50
2022-11-15T08:41:08.631Z,75.50
2022-11-15T08:43:56.089Z,75.40
2022-11-15T08:46:42.651Z,75.60
2022-11-15T08:49:29.114Z,75.60
2022-11-15T08:52:16.018Z,75.60
2022-11-15T08:55:02.571Z,75.50
2022-11-15T08:57:49.237Z,75.70
2022-11-15T09:00:36.975Z,75.50
2022-11-15T09:03:23.468Z,75.50
2022-11-15T09:06:10.127Z,75.60
2022-11-15T09:08:56.607Z,75.40
2022-11-15T09:11:42.999Z,75.40
2022-11-15T09:14:29.532Z,75.50
2022-11-15T09:17:21.691Z,75.50
2022-11-15T09:20:11.292Z,75.40
2022-11-15T09:23:01.794Z,75.40
2022-11-15T09:25:48.609Z,75.60
2022-11-15T09:28:36.095Z,75.50
2022-11-15T09:31:22.654Z,75.40
2022-11-15T09:34:10.230Z,75.40
2022-11-15T09:36:57.027Z,75.40
2022-11-15T09:39:43.603Z,75.30
2022-11-15T09:42:45.420Z,75.40
2022-11-15T09:45:39.020Z,75.30
2022-11-15T09:48:51.714Z,75.30
2022-11-15T09:51:47.335Z,75.40
2022-11-15T09:54:51.495Z,75.50
2022-11-15T09:57:16.243Z,75.40
2022-11-15T10:00:44.047Z,75.30
2022-11-15T10:03:10.381Z,75.40
2022-11-15T10:05:41.744Z,75.30
2022-11-15T10:08:33.971Z,75.40
2022-11-15T10:13:54.935Z,75.30
2022-11-15T10:16:55.937Z,75.40
2022-11-15T10:19:28.460Z,75.50
2022-11-15T10:22:05.251Z,75.50
2022-11-15T10:24:41.737Z,75.40
2022-11-15T10:27:13.320Z,75.50
2022-11-15T10:29:45.688Z,75.50
2022-11-15T10:32:13.895Z,75.50
2022-11-15T10:34:41.713Z,75.40
2022-11-15T10:37:09.512Z,75.50
2022-11-15T10:39:38.650Z,75.50
2022-11-15T10:42:27.023Z,75.50
2022-11-15T10:44:54.726Z,76.20
2022-11-15T10:47:37.860Z,76.90
2022-11-15T10:50:09.428Z,77.60
2022-11-15T10:52:38.575Z,77.70
2022-11-15T10:55:24.724Z,77.90
2022-11-15T10:57:54.712Z,78.20
2022-11-15T11:00:31.904Z,78.20
2022-11-15T11:03:02.190Z,78.60
2022-11-15T11:05:38.098Z,79.00
2022-11-15T11:08:24.184Z,79.00
2022-11-15T11:11:02.084Z,79.00
2022-11-15T11:13:32.606Z,79.00
2022-11-15T11:16:20.585Z,79.00
2022-11-15T11:18:55.385Z,79.00
2022-11-15T11:21:38.449Z,78.80
2022-11-15T11:24:14.956Z,78.10
2022-11-15T11:26:56.715Z,77.40
2022-11-15T11:29:37.673Z,76.90
2022-11-15T11:32:18.743Z,77.00
2022-11-15T11:34:56.853Z,77.10
2022-11-15T11:37:33.934Z,77.10
2022-11-15T11:40:16.048Z,77.10
2022-11-15T11:42:59.005Z,77.10
2022-11-15T11:45:50.648Z,77.20
2022-11-15T11:48:30.370Z,77.20
2022-11-15T11:51:04.596Z,77.10
2022-11-15T11:53:41.238Z,77.00
2022-11-15T11:56:21.044Z,77.10
2022-11-15T11:58:52.574Z,77.00
2022-11-15T12:01:25.276Z,77.00
2022-11-15T12:03:58.675Z,77.00
2022-11-15T12:06:33.323Z,77.00
2022-11-15T12:09:05.503Z,77.00
2022-11-15T12:11:40.512Z,76.90
2022-11-15T12:14:18.283Z,76.90
2022-11-15T12:16:46.212Z,76.80
2022-11-15T12:19:13.947Z,76.80
2022-11-15T12:21:48.612Z,76.70
2022-11-15T12:24:21.370Z,76.70
2022-11-15T12:26:54.586Z,76.70
2022-11-15T12:29:29.707Z,76.60
2022-11-15T12:32:00.762Z,76.70
2022-11-15T12:34:43.920Z,76.60
2022-11-15T12:37:51.432Z,76.60
2022-11-15T12:40:32.221Z,76.60
2022-11-15T12:43:06.783Z,76.50
2022-11-15T12:45:38.575Z,76.50
2022-11-15T12:48:43.529Z,76.50
2022-11-15T12:51:11.315Z,76.50
2022-11-15T12:53:39.268Z,76.40
2022-11-15T12:56:20.586Z,76.40
2022-11-15T12:58:49.881Z,76.40
2022-11-15T13:01:55.061Z,76.40
2022-11-15T13:04:29.936Z,76.40
2022-11-15T13:07:00.245Z,76.40
2022-11-15T13:09:54.477Z,76.30
2022-11-15T13:12:59.976Z,76.30
2022-11-15T13:15:42.521Z,76.30
2022-11-15T13:18:47.456Z,76.20
2022-11-15T13:21:42.211Z,76.30
2022-11-15T13:24:16.011Z,76.20
2022-11-15T13:26:44.145Z,76.20
2022-11-15T13:29:18.273Z,76.10
2022-11-15T13:31:48.070Z,76.10
2022-11-15T13:34:50.668Z,76.10
2022-11-15T13:37:33.270Z,76.10
2022-11-15T13:40:19.978Z,76.10
2022-11-15T13:42:47.881Z,76.10
2022-11-15T13:45:18.184Z,76.10
2022-11-15T13:47:46.054Z,76.20
2022-11-15T13:50:14.757Z,76.30
2022-11-15T13:52:46.447Z,76.30
2022-11-15T13:55:16.905Z,76.30
2022-11-15T13:57:46.700Z,76.20
2022-11-15T14:00:32.395Z,76.20
2022-11-15T14:03:09.165Z,76.30
2022-11-15T14:05:37.320Z,76.20
2022-11-15T14:08:23.812Z,76.20
2022-11-15T14:11:08.720Z,76.20
2022-11-15T14:13:36.484Z,76.20
2022-11-15T14:16:18.346Z,76.20
2022-11-15T14:18:48.853Z,76.10
2022-11-15T14:21:16.766Z,76.10
2022-11-15T14:23:45.848Z,76.10
2022-11-15T14:26:29.813Z,76.10
2022-11-15T14:28:57.558Z,76.10
2022-11-15T14:31:25.339Z,76.00
2022-11-15T14:33:53.112Z,76.00
2022-11-15T14:36:22.872Z,76.10
2022-11-15T14:38:51.975Z,76.00
2022-11-15T14:41:22.238Z,75.90
2022-11-15T14:43:50.060Z,75.90
2022-11-15T14:46:18.038Z,75.90
2022-11-15T14:48:45.825Z,75.90
2022-11-15T14:51:14.960Z,75.90
2022-11-15T14:53:44.164Z,75.90
2022-11-15T14:56:14.758Z,75.90
2022-11-15T14:58:42.845Z,75.90
2022-11-15T15:01:15.420Z,75.80
2022-11-15T15:03:44.938Z,75.80
2022-11-15T15:06:17.869Z,75.90
2022-11-15T15:08:46.600Z,75.80
2022-11-15T15:11:17.933Z,75.90
2022-11-15T15:13:45.649Z,75.80
2022-11-15T15:16:13.413Z,75.80
2022-11-15T15:18:41.143Z,75.80
2022-11-15T15:21:24.854Z,75.80
2022-11-15T15:23:54.805Z,75.70
2022-11-15T15:26:24.596Z,75.80
2022-11-15T15:28:52.927Z,75.70
2022-11-15T15:31:20.999Z,75.70
2022-11-15T15:33:48.756Z,75.60
2022-11-15T15:36:20.452Z,75.60
2022-11-15T15:38:48.436Z,75.50
2022-11-15T15:41:17.714Z,75.50
2022-11-15T15:43:47.059Z,75.50
2022-11-15T15:46:17.857Z,75.50
2022-11-15T15:48:46.213Z,75.50
2022-11-15T15:51:19.821Z,75.40
2022-11-15T15:53:48.402Z,75.50
2022-11-15T15:56:16.210Z,75.40
2022-11-15T15:58:43.956Z,75.40
2022-11-15T16:01:13.134Z,75.40
2022-11-15T16:03:40.901Z,75.40
2022-11-15T16:06:44.189Z,75.40
2022-11-15T16:09:16.709Z,75.50
2022-11-15T16:11:46.653Z,75.40
2022-11-15T16:14:14.689Z,75.50
2022-11-15T16:16:43.780Z,75.50
2022-11-15T16:19:12.952Z,75.50
2022-11-15T16:21:40.665Z,75.40
2022-11-15T16:24:08.412Z,75.50
2022-11-15T16:26:37.664Z,75.50
2022-11-15T16:29:05.435Z,75.40
2022-11-15T16:31:33.241Z,75.50
2022-11-15T16:34:02.505Z,75.50
2022-11-15T16:36:34.241Z,75.50
2022-11-15T16:39:04.882Z,75.50
2022-11-15T16:41:33.247Z,75.50
2022-11-15T16:44:01.019Z,75.50
2022-11-15T16:46:29.819Z,75.50
2022-11-15T16:48:57.571Z,75.60
2022-11-15T16:51:26.903Z,75.60
2022-11-15T16:53:54.684Z,75.60
2022-11-15T16:56:26.303Z,75.60
2022-11-15T16:58:54.599Z,75.70
2022-11-15T17:01:25.342Z,76.50
2022-11-15T17:03:53.702Z,75.70
2022-11-15T17:06:22.306Z,75.70
2022-11-15T17:08:51.409Z,75.70
2022-11-15T17:11:21.404Z,75.70
2022-11-15T17:13:49.507Z,75.70
2022-11-15T17:16:19.078Z,75.80
2022-11-15T17:18:51.360Z,75.80
2022-11-15T17:21:21.742Z,75.80
2022-11-15T17:23:51.103Z,75.80
2022-11-15T17:26:39.254Z,75.80
2022-11-15T17:29:07.987Z,75.80
2022-11-15T17:31:36.172Z,75.80
2022-11-15T17:34:05.466Z,75.80
2022-11-15T17:36:33.611Z,75.80
2022-11-15T17:39:02.900Z,75.80
2022-11-15T17:41:30.996Z,75.80
2022-11-15T17:44:00.115Z,75.80
2022-11-15T17:46:29.343Z,75.80
2022-11-15T17:48:58.068Z,75.80
2022-11-15T17:51:26.541Z,75.80
2022-11-15T17:53:54.550Z,75.90
2022-11-15T17:56:25.571Z,75.80
2022-11-15T17:58:55.263Z,75.80
2022-11-15T18:01:24.915Z,75.80
2022-11-15T18:03:53.457Z,75.80
2022-11-15T18:06:22.871Z,75.90
2022-11-15T18:08:52.757Z,75.90
2022-11-15T18:11:23.464Z,75.70
2022-11-15T18:13:52.960Z,75.70
2022-11-15T18:16:22.694Z,75.50
2022-11-15T18:18:50.435Z,75.30
2022-11-15T18:21:21.487Z,75.30
2022-11-15T18:23:50.203Z,75.10
2022-11-15T18:26:20.915Z,75.00
2022-11-15T18:28:52.195Z,74.80
2022-11-15T18:31:21.803Z,74.80
2022-11-15T18:33:50.900Z,74.80
2022-11-15T18:36:20.291Z,74.80
2022-11-15T18:38:48.170Z,74.80
2022-11-15T18:41:20.404Z,75.00
2022-11-15T18:43:50.179Z,75.00
2022-11-15T18:46:24.747Z,75.00
2022-11-15T18:48:54.763Z,75.10
2022-11-15T18:51:24.889Z,75.20
2022-11-15T18:53:54.592Z,75.20
2022-11-15T18:56:24.011Z,75.30
2022-11-15T18:58:54.559Z,75.20
2022-11-15T19:01:26.132Z,75.10
2022-11-15T19:03:56.521Z,75.00
2022-11-15T19:06:25.997Z,74.90
2022-11-15T19:08:56.257Z,74.90
2022-11-15T19:11:27.963Z,74.90
2022-11-15T19:13:57.105Z,75.10
2022-11-15T19:16:27.762Z,75.90
2022-11-15T19:18:56.053Z,75.20
2022-11-15T19:21:24.621Z,75.20
2022-11-15T19:23:54.116Z,75.30
2022-11-15T19:26:23.784Z,75.40
2022-11-15T19:28:52.802Z,75.40
2022-11-15T19:31:21.915Z,75.50
2022-11-15T19:33:52.532Z,75.60
2022-11-15T19:36:22.008Z,75.50
2022-11-15T19:38:49.881Z,75.60
2022-11-15T19:41:19.115Z,75.70
2022-11-15T19:43:47.890Z,75.70
2022-11-15T19:46:16.275Z,75.80
2022-11-15T19:48:44.611Z,75.70
2022-11-15T19:51:15.438Z,75.80
2022-11-15T19:53:43.532Z,75.80
2022-11-15T19:56:12.983Z,76.60
2022-11-15T19:58:41.380Z,75.90
2022-11-15T20:01:14.157Z,75.90
2022-11-15T20:03:42.417Z,75.90
2022-11-15T20:06:15.581Z,76.00
2022-11-15T20:08:44.249Z,75.90
2022-11-15T20:11:12.994Z,76.10
2022-11-15T20:13:41.636Z,75.90
2022-11-15T20:16:10.594Z,75.90
2022-11-15T20:18:38.386Z,76.00
2022-11-15T20:21:06.503Z,76.00
2022-11-15T20:23:35.540Z,76.00
2022-11-15T20:26:03.327Z,76.00
2022-11-15T20:28:31.410Z,76.10
2022-11-15T20:31:01.437Z,76.10
2022-11-15T20:33:29.504Z,76.10
2022-11-15T20:35:57.233Z,76.10
2022-11-15T20:38:25.271Z,76.20
2022-11-15T20:40:59.866Z,76.20
2022-11-15T20:43:28.000Z,76.10
2022-11-15T20:45:55.834Z,76.20
2022-11-15T20:48:23.644Z,76.20
2022-11-15T20:50:51.405Z,76.10
2022-11-15T20:53:20.858Z,76.20
2022-11-15T20:55:50.841Z,76.10
2022-11-15T20:58:19.900Z,76.10
2022-11-15T21:00:47.680Z,76.10
2022-11-15T21:03:15.737Z,76.10
2022-11-15T21:05:45.059Z,76.10
2022-11-15T21:08:13.566Z,76.10
2022-11-15T21:10:59.315Z,76.00
2022-11-15T21:13:28.407Z,76.00
2022-11-15T21:15:57.764Z,76.00
2022-11-15T21:18:25.825Z,76.00
2022-11-15T21:20:53.776Z,75.90
2022-11-15T21:23:22.148Z,76.00
2022-11-15T21:25:51.569Z,76.00
2022-11-15T21:28:19.788Z,76.00
2022-11-15T21:30:55.967Z,76.00
2022-11-15T21:33:27.165Z,76.00
2022-11-15T21:35:56.073Z,76.00
2022-11-15T21:38:24.468Z,76.00
2022-11-15T21:40:52.559Z,76.00
2022-11-15T21:43:20.947Z,76.00
2022-11-15T21:45:59.965Z,76.10
2022-11-15T21:48:28.058Z,76.00
2022-11-15T21:50:56.879Z,75.90
2022-11-15T21:53:25.301Z,75.90
2022-11-15T21:55:53.432Z,76.00
2022-11-15T21:58:22.050Z,76.10
2022-11-15T22:01:08.018Z,75.90
2022-11-15T22:03:37.240Z,75.90
2022-11-15T22:06:05.473Z,75.90
2022-11-15T22:08:33.506Z,75.90
2022-11-15T22:11:01.754Z,75.90
2022-11-15T22:13:29.511Z,75.90
2022-11-15T22:15:57.511Z,76.00
2022-11-15T22:18:26.732Z,76.00
2022-11-15T22:20:57.165Z,76.00
2022-11-15T22:23:25.512Z,76.00
2022-11-15T22:25:53.534Z,76.00
2022-11-15T22:28:22.035Z,76.00
2022-11-15T22:30:51.519Z,76.00
2022-11-15T22:33:21.087Z,76.00
2022-11-15T22:35:49.337Z,76.00
2022-11-15T22:38:18.787Z,76.00
2022-11-15T22:40:47.389Z,76.00
2022-11-15T22:43:16.962Z,76.10
2022-11-15T22:45:49.159Z,76.10
2022-11-15T22:48:17.291Z,76.10
2022-11-15T22:50:45.654Z,76.00
2022-11-15T22:53:13.872Z,76.10
2022-11-15T22:55:43.455Z,76.00
2022-11-15T22:58:11.522Z,76.00
2022-11-15T23:00:39.303Z,76.10
2022-11-15T23:03:07.122Z,76.10
2022-11-15T23:05:34.954Z,76.10
2022-11-15T23:08:02.746Z,76.10
2022-11-15T23:10:48.303Z,76.10
2022-11-15T23:13:17.481Z,76.10
2022-11-15T23:16:04.768Z,76.10
2022-11-15T23:18:35.590Z,75.90
2022-11-15T23:21:10.070Z,76.10
2022-11-15T23:23:36.907Z,76.10
2022-11-15T23:26:05.425Z,76.00
2022-11-15T23:28:36.292Z,76.00
2022-11-15T23:31:22.971Z,76.00
2022-11-15T23:33:59.791Z,76.00
2022-11-15T23:36:29.118Z,76.10
2022-11-15T23:38:57.008Z,76.00
2022-11-15T23:41:25.551Z,76.00
2022-11-15T23:43:54.725Z,76.10
2022-11-15T23:46:22.529Z,76.00
2022-11-15T23:48:50.320Z,76.00
2022-11-15T23:51:18.353Z,76.00
2022-11-15T23:53:46.157Z,76.00
2022-11-15T23:56:15.491Z,76.10
2022-11-15T23:58:43.928Z,76.00
